Time;durP1;ratioP1;P1;durP2;ratioP2;P2;SDS_P1;SDS_P2;PMS_P1;PMS_P2;Temp;Humidity;BMP_temperature;BMP_pressure;BME280_temperature;BME280_humidity;BME280_pressure;Samples;Min_cycle;Max_cycle;Signal;HPM_P1;HPM_P2
2022/05/02 00:03:22;;;;;;;20.67;17.25;;;;;;;7.15;100.00;102100.22;10499141;28;20049;-58
2022/05/02 00:08:24;;;;;;;23.15;19.02;;;;;;;7.06;100.00;102098.66;10506266;28;20072;-57
2022/05/02 00:13:27;;;;;;;23.00;20.10;;;;;;;7.07;100.00;102090.81;10505999;28;20059;-57
2022/05/02 00:18:29;;;;;;;32.55;29.55;;;;;;;6.88;100.00;102085.16;10506324;28;20048;-58
2022/05/02 00:23:31;;;;;;;42.25;38.75;;;;;;;6.89;100.00;102086.00;10505506;28;20048;-57
2022/05/02 00:28:34;;;;;;;36.80;33.67;;;;;;;6.94;100.00;102084.16;10505350;28;20395;-57
2022/05/02 00:33:37;;;;;;;42.05;38.85;;;;;;;7.04;100.00;102069.19;10505126;28;20419;-58
2022/05/02 00:38:39;;;;;;;41.08;37.92;;;;;;;7.00;100.00;102065.81;10504858;28;20050;-58
2022/05/02 00:43:42;;;;;;;56.72;52.85;;;;;;;7.05;100.00;102056.16;10505956;28;20067;-57
2022/05/02 00:48:44;;;;;;;64.35;60.15;;;;;;;7.07;100.00;102058.72;10504522;28;20056;-57
2022/05/02 00:53:48;;;;;;;79.45;74.63;;;;;;;6.98;100.00;102056.34;10505000;28;20052;-58
2022/05/02 00:58:51;;;;;;;95.47;89.55;;;;;;;6.99;100.00;102060.63;10504753;28;20052;-57
2022/05/02 01:03:55;;;;;;;120.05;112.97;;;;;;;6.78;100.00;102060.22;10504611;28;20053;-56
2022/05/02 01:08:58;;;;;;;144.45;136.43;;;;;;;7.02;100.00;102053.59;10504498;28;20065;-57
2022/05/02 01:14:00;;;;;;;162.80;153.63;;;;;;;6.80;100.00;102055.81;10501944;28;20065;-57
2022/05/02 01:19:03;;;;;;;185.25;175.20;;;;;;;6.87;100.00;102053.94;10503263;28;20044;-57
2022/05/02 01:24:06;;;;;;;194.43;184.27;;;;;;;7.11;100.00;102057.78;10502725;28;20048;-56
2022/05/02 01:29:08;;;;;;;206.73;195.93;;;;;;;7.07;100.00;102058.72;10503688;28;20041;-57
2022/05/02 01:34:11;;;;;;;202.63;192.07;;;;;;;7.32;100.00;102055.56;10503472;28;20063;-57
2022/05/02 01:39:13;;;;;;;202.18;191.70;;;;;;;7.03;100.00;102055.31;10503220;28;20052;-57
2022/05/02 01:44:15;;;;;;;209.35;198.40;;;;;;;7.04;100.00;102058.78;10503078;28;20055;-57
2022/05/02 01:49:18;;;;;;;230.40;218.52;;;;;;;6.92;100.00;102051.25;10502945;28;20041;-57
2022/05/02 01:54:20;;;;;;;202.38;192.07;;;;;;;7.07;100.00;102050.91;10502078;28;20411;-57
2022/05/02 01:59:23;;;;;;;211.40;200.63;;;;;;;6.94;100.00;102052.91;10502441;28;20045;-57
2022/05/02 02:09:46;;;;;;;243.83;231.57;;;;;;;6.73;100.00;102049.03;10500475;28;20510;-57
2022/05/02 02:14:49;;;;;;;240.25;228.35;;;;;;;6.77;100.00;102039.41;10501030;28;20754;-57
2022/05/02 02:19:51;;;;;;;267.02;253.73;;;;;;;6.74;100.00;102036.88;10501499;28;20056;-57
2022/05/02 02:24:54;;;;;;;258.75;245.75;;;;;;;6.66;100.00;102045.72;10501434;28;20177;-57
2022/05/02 02:29:56;;;;;;;271.98;258.48;;;;;;;6.72;100.00;102033.47;10499744;28;20063;-57
2022/05/02 02:34:58;;;;;;;261.40;248.13;;;;;;;6.64;100.00;102036.22;10500355;28;20403;-57
2022/05/02 02:40:01;;;;;;;270.17;256.75;;;;;;;6.38;100.00;102039.38;10500705;28;20049;-57
2022/05/02 02:45:03;;;;;;;267.83;254.35;;;;;;;6.50;100.00;102028.69;10499948;28;20044;-57
2022/05/02 02:50:06;;;;;;;281.30;267.48;;;;;;;6.32;100.00;102027.31;10500358;28;20048;-57
2022/05/02 02:55:09;;;;;;;289.55;274.92;;;;;;;6.17;100.00;102023.31;10499582;28;20398;-57
2022/05/02 03:00:12;;;;;;;275.60;261.65;;;;;;;6.11;100.00;102016.44;10498791;28;20055;-57
2022/05/02 03:10:35;;;;;;;279.83;265.98;;;;;;;5.94;100.00;102013.28;10499422;28;21691;-57
2022/05/02 03:15:37;;;;;;;281.63;267.23;;;;;;;5.96;100.00;102011.56;10498391;28;20059;-57
2022/05/02 03:20:42;;;;;;;278.25;264.13;;;;;;;5.81;100.00;102009.19;10499206;28;20083;-57
2022/05/02 03:25:45;;;;;;;283.85;269.75;;;;;;;5.92;100.00;102012.47;10497446;28;20389;-57
2022/05/02 03:30:47;;;;;;;283.90;269.63;;;;;;;5.70;100.00;102015.44;10499031;28;20053;-56
2022/05/02 03:35:49;;;;;;;283.95;269.85;;;;;;;5.62;100.00;102006.09;10498960;28;20055;-57
2022/05/02 03:40:51;;;;;;;282.65;268.52;;;;;;;5.64;100.00;102012.09;10498107;28;20059;-57
2022/05/02 03:45:54;;;;;;;289.73;275.33;;;;;;;5.68;100.00;102009.44;10498686;28;20067;-57
2022/05/02 03:50:56;;;;;;;291.52;276.73;;;;;;;5.63;100.00;102003.47;10497424;28;20052;-57
2022/05/02 03:55:58;;;;;;;293.38;278.50;;;;;;;5.55;100.00;102003.59;10498535;28;20048;-57
2022/05/02 04:01:01;;;;;;;293.90;279.25;;;;;;;5.41;100.00;102005.53;10513286;28;20399;-57
2022/05/02 04:06:03;;;;;;;296.33;281.67;;;;;;;5.49;100.00;102008.88;10496486;28;20487;-57
2022/05/02 04:11:06;;;;;;;302.80;287.50;;;;;;;5.12;100.00;102006.88;10497917;28;20049;-57
2022/05/02 04:16:08;;;;;;;304.73;289.42;;;;;;;5.10;100.00;102007.78;10498083;28;20048;-57
2022/05/02 04:21:10;;;;;;;303.55;288.17;;;;;;;5.21;100.00;102006.75;10497373;28;20506;-57
2022/05/02 04:26:13;;;;;;;303.75;288.58;;;;;;;5.36;100.00;102012.56;10497225;28;20518;-57
2022/05/02 04:31:15;;;;;;;313.77;298.17;;;;;;;5.49;100.00;102011.47;10496130;28;20487;-57
2022/05/02 04:36:18;;;;;;;318.30;302.13;;;;;;;5.32;100.00;102005.72;10497017;28;20488;-57
2022/05/02 04:41:20;;;;;;;305.80;290.38;;;;;;;5.43;100.00;102009.00;10497520;28;20044;-56
2022/05/02 04:46:22;;;;;;;308.38;293.25;;;;;;;5.34;100.00;102015.16;10496873;28;20052;-57
2022/05/02 04:51:25;;;;;;;313.77;297.75;;;;;;;5.33;100.00;102010.88;10501261;28;20499;-57
2022/05/02 04:56:27;;;;;;;311.10;295.58;;;;;;;5.49;100.00;102010.63;10504902;28;20063;-57
2022/05/02 05:01:29;;;;;;;313.75;297.65;;;;;;;5.32;100.00;102010.91;10503993;28;20484;-57
2022/05/02 05:06:32;;;;;;;315.23;299.15;;;;;;;5.51;100.00;102019.25;10503425;28;20063;-57
2022/05/02 05:11:51;;;;;;;308.70;292.70;;;;;;;5.49;100.00;102021.00;10503609;28;20049;-56
2022/05/02 05:17:36;;;;;;;303.73;288.13;;;;;;;5.66;100.00;102018.97;10503043;28;20052;-57
2022/05/02 05:23:17;;;;;;;297.48;282.30;;;;;;;5.82;100.00;102029.13;10503864;28;20055;-57
2022/05/02 05:28:35;;;;;;;294.58;279.42;;;;;;;5.94;100.00;102027.13;10502088;28;20040;-56
2022/05/02 05:33:51;;;;;;;294.95;279.88;;;;;;;6.18;100.00;102021.56;10503582;28;20056;-57
2022/05/02 05:39:05;;;;;;;283.45;268.83;;;;;;;6.36;100.00;102025.53;10502178;28;20051;-57
2022/05/02 05:44:32;;;;;;;280.15;265.98;;;;;;;6.59;100.00;102014.63;10503080;28;20052;-57
2022/05/02 05:49:52;;;;;;;287.10;272.30;;;;;;;6.63;100.00;102017.16;10502891;28;20052;-57
2022/05/02 05:55:10;;;;;;;310.00;294.45;;;;;;;6.87;100.00;102018.34;10502785;28;20048;-57
2022/05/02 06:00:14;;;;;;;313.63;297.77;;;;;;;6.97;100.00;102016.41;10517822;28;20044;-57
2022/05/02 06:05:17;;;;;;;329.42;312.38;;;;;;;7.01;100.00;102017.19;10502033;28;20055;-57
2022/05/02 06:10:20;;;;;;;313.98;298.05;;;;;;;7.35;100.00;102025.06;10501897;28;20048;-59
2022/05/02 06:20:45;;;;;;;310.15;294.33;;;;;;;7.80;100.00;102023.94;10501068;28;20123;-57
2022/05/02 06:25:53;;;;;;;313.05;297.42;;;;;;;7.85;100.00;102023.81;10500297;28;20052;-57
2022/05/02 06:31:00;;;;;;;326.35;309.90;;;;;;;7.88;100.00;102018.53;10499365;28;20484;-57
2022/05/02 06:36:42;;;;;;;308.80;292.90;;;;;;;8.26;100.00;102012.25;10500963;28;20052;-57
2022/05/02 06:42:23;;;;;;;304.47;288.80;;;;;;;8.40;100.00;102011.88;10497560;28;20045;-57
2022/05/02 06:47:50;;;;;;;335.92;318.98;;;;;;;8.63;100.00;102015.59;10499917;28;20479;-58
2022/05/02 06:53:23;;;;;;;324.25;307.35;;;;;;;9.05;99.40;102017.81;10500423;28;20055;-58
2022/05/02 06:58:49;;;;;;;341.17;324.02;;;;;;;9.38;94.59;102015.00;10499406;28;20422;-58
2022/05/02 07:04:08;;;;;;;342.98;325.58;;;;;;;9.67;98.80;102017.50;10498857;28;20060;-57
2022/05/02 07:09:16;;;;;;;343.58;326.42;;;;;;;10.27;95.63;102008.44;10499150;28;20041;-58
2022/05/02 07:14:53;;;;;;;363.63;345.67;;;;;;;10.90;91.64;102006.06;10498031;28;20059;-58
2022/05/02 07:20:03;;;;;;;370.17;352.20;;;;;;;11.62;84.40;102008.38;10499369;28;20041;-58
2022/05/02 07:25:11;;;;;;;355.95;338.33;;;;;;;12.35;82.10;102011.31;10497539;28;20483;-58
2022/05/02 07:30:14;;;;;;;281.58;267.75;;;;;;;12.58;76.08;102010.28;10498485;28;20048;-59
2022/05/02 07:35:17;;;;;;;174.38;165.63;;;;;;;13.26;71.39;102011.44;10498342;28;20059;-59
2022/05/02 07:40:21;;;;;;;145.85;138.18;;;;;;;13.13;71.95;102011.19;10514546;28;20041;-59
2022/05/02 07:45:31;;;;;;;120.28;114.03;;;;;;;14.01;69.91;102001.53;10498744;28;20059;-59
2022/05/02 07:50:34;;;;;;;81.57;76.63;;;;;;;14.27;70.19;102002.75;10498616;28;20044;-59
2022/05/02 07:55:38;;;;;;;41.42;38.78;;;;;;;14.10;69.80;102009.81;10498545;28;20055;-59
2022/05/02 08:00:41;;;;;;;15.23;13.95;;;;;;;14.98;64.16;102010.31;10497690;28;20484;-59
2022/05/02 08:05:45;;;;;;;11.15;10.15;;;;;;;14.84;64.51;102011.09;10497082;28;20052;-59
2022/05/02 08:11:13;;;;;;;18.67;16.77;;;;;;;14.86;62.63;102003.94;10496901;28;20055;-59
2022/05/02 08:16:23;;;;;;;20.70;19.13;;;;;;;15.60;60.07;102001.44;10496993;28;20048;-59
2022/05/02 08:21:35;;;;;;;34.28;31.92;;;;;;;16.61;57.68;101993.53;10497337;28;20045;-59
2022/05/02 08:33:05;;;;;;;160.93;152.60;;;;;;;16.21;56.32;101994.28;10505362;28;20052;-59
2022/05/02 08:38:16;;;;;;;222.25;211.50;;;;;;;16.57;53.51;102000.81;10505169;28;20049;-59
2022/05/02 08:43:24;;;;;;;;;;;;;;;17.33;49.28;101986.22;10505221;28;20487;-59
2022/05/02 08:54:31;;;;;;;309.27;294.80;;;;;;;16.87;51.17;101984.78;10503441;28;20399;-59
2022/05/02 09:00:04;;;;;;;292.42;278.52;;;;;;;16.65;51.26;101980.03;10504734;28;20053;-59
2022/05/02 09:05:37;;;;;;;319.63;304.50;;;;;;;17.95;50.52;101977.56;10502948;28;20408;-59
2022/05/02 09:11:05;;;;;;;336.60;320.40;;;;;;;18.29;49.12;101980.50;10504220;28;20044;-59
2022/05/02 09:16:43;;;;;;;352.20;335.08;;;;;;;18.51;49.47;101977.16;10503603;28;20480;-59
2022/05/02 09:21:57;;;;;;;428.60;405.15;;;;;;;18.16;46.40;101977.88;10501967;28;20049;-59
2022/05/02 09:27:15;;;;;;;401.38;381.98;;;;;;;19.64;47.65;101972.28;10503884;28;20053;-59
2022/05/02 09:32:18;;;;;;;406.40;386.27;;;;;;;19.54;46.82;101967.81;10503005;28;20480;-59
2022/05/02 09:37:41;;;;;;;438.35;415.85;;;;;;;19.51;46.41;101970.72;10502532;28;20124;-59
2022/05/02 09:43:09;;;;;;;418.63;398.00;;;;;;;19.49;45.66;101966.34;10502126;28;20044;-59
2022/05/02 09:54:10;;;;;;;388.23;369.25;;;;;;;19.17;45.92;101952.88;10502876;28;20059;-59
2022/05/02 09:59:23;;;;;;;367.83;349.83;;;;;;;20.54;43.03;101947.50;10501352;28;20059;-59
2022/05/02 10:04:40;;;;;;;340.52;324.48;;;;;;;19.42;44.30;101951.84;10502434;28;20052;-59
2022/05/02 10:09:42;;;;;;;369.38;351.65;;;;;;;21.10;44.28;101950.94;10501593;28;20500;-59
2022/05/02 10:14:48;;;;;;;318.40;303.40;;;;;;;19.04;43.23;101947.63;10501156;28;20091;-59
2022/05/02 10:20:06;;;;;;;544.85;299.48;;;;;;;20.45;42.73;101934.09;10500976;28;20041;-59
2022/05/02 10:25:11;;;;;;;395.00;45.80;;;;;;;22.08;42.68;101941.66;10501613;28;20059;-59
2022/05/02 10:30:13;;;;;;;10.27;9.25;;;;;;;20.87;42.38;101931.56;10501312;28;20099;-59
2022/05/02 10:35:17;;;;;;;11.27;9.55;;;;;;;21.85;38.35;101931.16;10501080;28;20471;-59
2022/05/02 10:40:40;;;;;;;11.98;8.88;;;;;;;22.64;41.51;101929.56;10500842;28;20495;-59
2022/05/02 10:45:43;;;;;;;11.98;10.18;;;;;;;18.78;43.23;101927.47;10500759;28;20048;-59
2022/05/02 10:51:23;;;;;;;10.07;9.07;;;;;;;23.06;40.02;101912.38;10500280;28;20052;-59
2022/05/02 10:56:45;;;;;;;11.10;9.65;;;;;;;22.63;41.53;101906.53;10488077;28;20048;-59
2022/05/02 11:02:11;;;;;;;11.07;9.98;;;;;;;19.79;40.51;101903.88;10499417;28;20400;-59
2022/05/02 11:07:49;;;;;;;12.23;9.60;;;;;;;21.42;42.51;101896.75;10499254;28;20561;-59
2022/05/02 11:13:09;;;;;;;14.15;10.45;;;;;;;20.66;39.71;101887.16;10499079;28;20388;-59
2022/05/02 11:24:13;;;;;;;10.32;8.93;;;;;;;25.14;35.94;101884.19;10498392;28;20044;-59
2022/05/02 11:29:29;;;;;;;11.93;10.10;;;;;;;23.16;37.53;101879.34;10470585;22;20414;-62
2022/05/02 11:34:31;;;;;;;12.23;8.57;;;;;;;25.79;33.95;101870.28;10456599;28;20045;-61
2022/05/02 11:39:57;;;;;;;11.55;8.73;;;;;;;24.62;35.34;101867.03;10457428;28;20041;-62
2022/05/02 11:45:12;;;;;;;11.50;9.90;;;;;;;22.92;39.10;101878.97;10446272;28;20487;-61
2022/05/02 11:50:18;;;;;;;10.63;9.52;;;;;;;22.69;35.56;101876.59;10456656;28;20484;-61
2022/05/02 11:55:29;;;;;;;11.02;9.68;;;;;;;23.30;36.69;101867.38;10455476;28;20423;-61
2022/05/02 12:00:32;;;;;;;9.18;8.25;;;;;;;24.12;36.20;101859.53;10454579;28;20052;-61
2022/05/02 12:05:44;;;;;;;13.70;8.77;;;;;;;24.36;35.47;101869.66;10455756;28;20053;-62
2022/05/02 12:10:47;;;;;;;8.82;7.30;;;;;;;25.14;34.42;101855.53;10455538;28;20041;-62
2022/05/02 12:16:08;;;;;;;11.52;9.85;;;;;;;22.89;37.99;101860.56;10456568;28;20220;-61
2022/05/02 12:21:14;;;;;;;10.02;9.10;;;;;;;23.47;34.76;101852.41;10456459;28;20041;-61
2022/05/02 12:26:21;;;;;;;10.82;9.77;;;;;;;21.67;37.81;101848.34;10454891;28;20061;-63
2022/05/02 12:31:32;;;;;;;9.90;8.77;;;;;;;25.73;34.48;101831.53;10456414;28;20072;-63
2022/05/02 12:36:49;;;;;;;11.10;7.60;;;;;;;26.78;33.33;101835.53;10456369;28;20068;-63
2022/05/02 12:42:27;;;;;;;1243.07;525.55;;;;;;;25.03;34.45;101842.41;10456751;28;20049;-63
2022/05/02 12:47:54;;;;;;;10.40;8.60;;;;;;;24.02;36.68;101838.19;10454359;28;20048;-63
2022/05/02 12:53:01;;;;;;;16.27;9.00;;;;;;;21.80;39.84;101839.28;10455273;28;20049;-63
2022/05/02 13:03:30;;;;;;;11.27;8.00;;;;;;;23.83;34.69;101831.13;10455805;28;20052;-63
2022/05/02 13:08:33;;;;;;;9.27;8.48;;;;;;;21.03;40.07;101840.59;10455789;28;20055;-63
2022/05/02 13:13:41;;;;;;;12.18;7.65;;;;;;;21.25;39.39;101826.28;10460219;28;20048;-63
2022/05/02 13:18:48;;;;;;;11.18;8.82;;;;;;;20.71;38.24;101812.22;10462204;28;20058;-63
2022/05/02 13:24:18;;;;;;;13.60;8.50;;;;;;;21.54;40.37;101804.28;10462592;28;20055;-63
2022/05/02 13:29:41;;;;;;;10.60;9.60;;;;;;;21.39;37.56;101793.97;10458868;28;20053;-63
2022/05/02 13:35:09;;;;;;;9.57;7.43;;;;;;;24.95;35.98;101807.50;10462251;28;20056;-63
2022/05/02 13:40:13;;;;;;;9.07;7.70;;;;;;;24.54;34.08;101788.47;10461923;28;20053;-63
2022/05/02 13:45:41;;;;;;;15.00;7.95;;;;;;;24.99;34.12;101795.50;10461138;28;20506;-63
2022/05/02 13:50:57;;;;;;;8.65;7.85;;;;;;;23.46;33.86;101781.22;10461629;28;20052;-63
2022/05/02 13:56:08;;;;;;;11.25;7.40;;;;;;;25.08;34.78;101778.47;10459632;28;20056;-63
2022/05/02 14:01:28;;;;;;;960.50;93.55;;;;;;;26.05;34.58;101775.47;10460686;28;20484;-63
2022/05/02 14:06:48;;;;;;;8.57;7.80;;;;;;;24.80;32.57;101778.66;10461096;28;20091;-62
2022/05/02 14:11:50;;;;;;;8.80;7.88;;;;;;;25.13;30.55;101772.63;10459890;28;20064;-63
2022/05/02 14:16:55;;;;;;;7.00;6.15;;;;;;;24.20;34.36;101771.31;10460649;28;20053;-62
2022/05/02 14:21:59;;;;;;;7.15;6.45;;;;;;;23.84;33.41;101763.31;10458729;28;20175;-63
2022/05/02 14:27:03;;;;;;;10.93;6.57;;;;;;;26.13;31.80;101754.00;10459826;28;20064;-63
2022/05/02 14:32:07;;;;;;;6.95;6.35;;;;;;;22.07;31.92;101753.28;10460011;28;20057;-62
2022/05/02 14:37:10;;;;;;;7.13;6.13;;;;;;;24.16;32.67;101750.38;10459190;28;20496;-62
2022/05/02 14:42:13;;;;;;;8.45;5.85;;;;;;;24.82;30.85;101754.41;10458378;28;20056;-63
2022/05/02 14:47:16;;;;;;;381.95;44.13;;;;;;;23.63;33.43;101752.84;10458224;28;20049;-62
2022/05/02 14:52:20;;;;;;;7.85;6.97;;;;;;;23.25;32.73;101745.91;10459163;28;20049;-63
2022/05/02 14:57:26;;;;;;;7.07;6.07;;;;;;;24.34;30.00;101743.16;10457832;28;20059;-62
2022/05/02 15:02:32;;;;;;;5.78;5.07;;;;;;;25.30;33.41;101741.41;10458250;28;20049;-63
2022/05/02 15:08:13;;;;;;;8.13;6.72;;;;;;;23.44;33.67;101735.13;10458059;28;20418;-63
2022/05/02 15:13:44;;;;;;;7.78;6.93;;;;;;;23.84;31.60;101727.69;10443236;28;20059;-62
2022/05/02 15:25:05;;;;;;;7.10;4.63;;;;;;;24.67;32.05;101712.13;10458047;28;20055;-63
2022/05/02 15:40:59;;;;;;;7.97;5.93;;;;;;;22.52;36.22;101694.00;10456871;28;20419;-62
2022/05/02 15:46:13;;;;;;;8.27;6.93;;;;;;;20.49;38.02;101699.63;10456215;28;20052;-62
2022/05/02 15:51:15;;;;;;;6.97;6.28;;;;;;;21.94;36.63;101692.25;10457260;28;20049;-62
2022/05/02 15:56:19;;;;;;;8.02;6.45;;;;;;;21.21;36.18;101692.53;10456424;28;20415;-62
2022/05/02 16:01:38;;;;;;;8.05;6.43;;;;;;;20.42;36.95;101693.16;10456949;28;20056;-62
2022/05/02 16:06:54;;;;;;;6.22;5.10;;;;;;;20.08;40.26;101700.47;10455166;28;20049;-62
2022/05/02 16:12:08;;;;;;;9.13;7.05;;;;;;;19.39;39.33;101694.50;10456222;28;20400;-62
2022/05/02 16:17:10;;;;;;;7.70;6.93;;;;;;;20.59;37.00;101679.25;10456759;28;20048;-62
2022/05/02 16:22:15;;;;;;;5.68;5.05;;;;;;;20.89;38.06;101677.59;10456560;28;20048;-62
2022/05/02 16:27:19;;;;;;;104.30;13.15;;;;;;;20.71;39.03;101677.38;10456117;28;20068;-62
2022/05/02 16:32:21;;;;;;;10.15;5.47;;;;;;;20.58;39.01;101676.72;10456398;28;20053;-62
2022/05/02 16:37:24;;;;;;;6.22;5.63;;;;;;;20.64;40.63;101672.72;10456322;28;20045;-62
2022/05/02 16:42:26;;;;;;;7.13;5.20;;;;;;;20.33;39.15;101681.47;10454369;28;20045;-62
2022/05/02 16:47:28;;;;;;;451.48;117.20;;;;;;;20.20;40.71;101680.84;10460208;28;20480;-62
2022/05/02 16:52:35;;;;;;;8.05;7.18;;;;;;;19.12;40.13;101673.69;10463878;28;20056;-62
2022/05/02 16:57:40;;;;;;;6.13;5.53;;;;;;;19.17;41.11;101671.50;10463087;28;20407;-62
2022/05/02 17:02:45;;;;;;;796.67;100.55;;;;;;;18.95;41.48;101675.03;10463511;28;20072;-62
2022/05/02 17:07:50;;;;;;;7.35;6.13;;;;;;;19.25;41.08;101678.88;10463434;28;20045;-62
2022/05/02 17:12:53;;;;;;;1999.90;999.90;;;;;;;18.98;40.93;101685.41;10463180;28;20049;-62
2022/05/02 17:17:55;;;;;;;5.45;4.80;;;;;;;19.37;40.89;101674.38;10477771;28;20491;-62
2022/05/02 17:22:59;;;;;;;7.25;6.07;;;;;;;18.51;43.42;101682.81;10461489;28;20048;-62
2022/05/02 17:28:03;;;;;;;7.95;6.00;;;;;;;18.28;44.86;101687.22;10460904;28;20057;-62
2022/05/02 17:33:09;;;;;;;1999.90;999.90;;;;;;;18.49;44.42;101690.03;10462398;28;20078;-62
2022/05/02 17:38:17;;;;;;;6.95;5.63;;;;;;;18.06;45.90;101695.09;10462288;28;20049;-62
2022/05/02 17:43:22;;;;;;;411.52;67.22;;;;;;;17.70;47.35;101684.44;10460793;28;20048;-62
2022/05/02 17:48:27;;;;;;;7.65;6.85;;;;;;;17.69;45.36;101685.41;10461228;28;20420;-62
2022/05/02 17:53:30;;;;;;;9.68;6.00;;;;;;;17.55;46.19;101694.34;10461000;28;20484;-62
2022/05/02 17:58:38;;;;;;;6.03;5.40;;;;;;;17.59;47.49;101689.69;10460585;28;20049;-62
2022/05/02 18:03:42;;;;;;;1305.13;531.55;;;;;;;17.18;49.70;101701.44;10460526;28;20496;-62
2022/05/02 18:08:47;;;;;;;8.32;7.63;;;;;;;17.33;48.13;101710.09;10460371;28;20075;-62
2022/05/02 18:13:49;;;;;;;9.68;8.48;;;;;;;17.02;49.73;101717.56;10459658;28;20045;-62
2022/05/02 18:19:05;;;;;;;7.88;7.15;;;;;;;16.51;50.08;101723.66;10460607;28;20045;-62
2022/05/02 18:24:16;;;;;;;10.80;7.03;;;;;;;16.40;52.06;101727.00;10460366;28;20048;-62
2022/05/02 18:29:21;;;;;;;240.57;53.30;;;;;;;16.15;52.65;101730.44;10458282;28;20063;-62
2022/05/02 18:35:49;;;;;;;1999.90;999.90;;;;;;;15.93;51.88;101733.66;10459962;28;20051;-62
2022/05/02 18:39:52;;;;;;;351.98;72.47;;;;;;;16.11;51.20;101737.72;10459039;28;20048;-62
2022/05/02 18:55:57;;;;;;;5.97;5.10;;;;;;;14.71;59.79;101758.78;10458312;28;20072;-61
2022/05/02 19:01:06;;;;;;;6.65;4.28;;;;;;;14.35;62.14;101765.25;10458929;28;20073;-62
2022/05/02 19:06:09;;;;;;;4.93;3.65;;;;;;;14.28;62.51;101770.88;10458777;28;20053;-61
2022/05/02 19:11:12;;;;;;;6.72;5.93;;;;;;;14.02;63.64;101780.28;10458524;28;20053;-62
2022/05/02 19:16:19;;;;;;;7.65;3.78;;;;;;;14.06;64.15;101781.78;10457256;28;20056;-61
2022/05/02 19:21:33;;;;;;;6.55;3.60;;;;;;;13.96;63.73;101792.94;10458187;28;20045;-61
2022/05/02 19:26:37;;;;;;;4.50;3.25;;;;;;;14.19;63.03;101792.50;10456193;28;20060;-61
2022/05/02 19:31:40;;;;;;;3.42;3.00;;;;;;;13.51;65.81;101803.25;10456699;28;20045;-61
2022/05/02 19:42:12;;;;;;;3.22;2.92;;;;;;;13.54;64.62;101811.00;10457211;28;20052;-61
2022/05/02 19:47:19;;;;;;;3.67;3.08;;;;;;;13.51;65.00;101812.00;10455394;28;20497;-61
2022/05/02 19:52:21;;;;;;;4.07;2.67;;;;;;;13.23;65.19;101811.72;10457088;28;20048;-61
2022/05/02 19:57:25;;;;;;;2.95;2.33;;;;;;;13.16;66.55;101819.94;10456926;28;20055;-61
2022/05/02 20:02:27;;;;;;;5.72;3.05;;;;;;;13.20;67.41;101820.63;10456662;28;20041;-61
2022/05/02 20:07:29;;;;;;;3.97;3.60;;;;;;;13.02;68.15;101838.19;10471959;28;20067;-61
2022/05/02 20:12:32;;;;;;;2.70;2.47;;;;;;;12.84;68.32;101837.34;10471290;28;20488;-61
2022/05/02 20:17:34;;;;;;;3.03;2.65;;;;;;;12.59;69.26;101829.84;10455851;28;20049;-61
2022/05/02 20:22:37;;;;;;;3.03;2.70;;;;;;;12.89;68.81;101837.13;10460875;28;20481;-61
2022/05/02 20:27:42;;;;;;;3.67;2.85;;;;;;;12.66;69.76;101833.00;10464166;28;20064;-61
2022/05/02 20:38:05;;;;;;;3.73;2.67;;;;;;;12.03;73.13;101829.88;10464503;28;20053;-61
2022/05/02 20:43:14;;;;;;;3.65;2.45;;;;;;;12.30;70.52;101837.38;10464267;28;20067;-61
2022/05/02 20:48:19;;;;;;;4.55;2.78;;;;;;;12.34;70.67;101849.44;10463113;28;20049;-61
2022/05/02 20:53:22;;;;;;;7.22;3.40;;;;;;;12.22;71.12;101844.75;10462137;28;20052;-61
2022/05/02 20:58:27;;;;;;;2.70;2.47;;;;;;;12.14;70.60;101850.38;10463195;28;20052;-61
2022/05/02 21:03:30;;;;;;;4.40;2.72;;;;;;;11.97;72.33;101845.94;10461949;28;20055;-61
2022/05/02 21:08:32;;;;;;;2.45;2.25;;;;;;;11.84;72.90;101855.25;10462254;28;20064;-61
2022/05/02 21:14:03;;;;;;;4.47;3.03;;;;;;;11.89;72.80;101859.38;10462529;28;20052;-61
2022/05/02 21:19:22;;;;;;;3.50;2.35;;;;;;;11.63;74.30;101857.94;10454650;28;20496;-61
2022/05/02 21:24:49;;;;;;;6.30;3.45;;;;;;;11.56;73.69;101861.75;10462774;28;20041;-61
2022/05/02 21:30:07;;;;;;;4.75;3.38;;;;;;;11.26;76.67;101856.94;10461886;28;20064;-61
2022/05/02 21:35:14;;;;;;;3.35;2.40;;;;;;;11.25;75.62;101862.25;10461161;28;20048;-61
2022/05/02 21:40:20;;;;;;;2.90;2.22;;;;;;;10.93;77.96;101873.19;10462081;28;20055;-61
2022/05/02 21:45:22;;;;;;;4.28;2.20;;;;;;;10.77;79.13;101872.09;10461975;28;20072;-61
2022/05/02 21:50:26;;;;;;;3.63;2.50;;;;;;;10.84;77.73;101872.69;10461766;28;20051;-61
2022/05/02 21:55:28;;;;;;;4.63;2.80;;;;;;;10.35;80.39;101872.91;10461698;28;20132;-61
2022/05/02 22:00:30;;;;;;;3.35;2.42;;;;;;;10.56;79.07;101871.22;10461307;28;20049;-61
2022/05/02 22:05:33;;;;;;;2.75;2.55;;;;;;;10.56;79.01;101869.44;10461214;28;20057;-61
2022/05/02 22:10:36;;;;;;;5.70;2.60;;;;;;;10.32;78.75;101870.41;10460950;28;20061;-61
2022/05/02 22:15:38;;;;;;;3.15;2.60;;;;;;;10.23;79.25;101871.59;10460720;28;20053;-61
2022/05/02 22:20:40;;;;;;;2.70;2.42;;;;;;;10.30;78.54;101873.03;10460540;28;20049;-61
2022/05/02 22:25:43;;;;;;;3.53;2.72;;;;;;;10.04;79.49;101877.53;10459518;28;20400;-61
2022/05/02 22:30:46;;;;;;;2.75;2.33;;;;;;;9.84;79.81;101870.44;10460199;28;20055;-61
2022/05/02 22:35:49;;;;;;;2.13;1.85;;;;;;;10.09;78.34;101876.53;10459993;28;20060;-61
2022/05/02 22:40:52;;;;;;;6.97;2.30;;;;;;;9.61;81.28;101880.88;10459121;28;20381;-61
2022/05/02 22:45:54;;;;;;;6.05;2.85;;;;;;;9.76;78.89;101880.31;10474715;28;20052;-61
2022/05/02 22:50:57;;;;;;;3.40;2.25;;;;;;;9.45;81.70;101889.28;10458750;28;20040;-61
2022/05/02 22:55:59;;;;;;;4.68;2.25;;;;;;;9.56;81.20;101899.34;10459214;28;20044;-61
2022/05/02 23:01:04;;;;;;;2.50;2.30;;;;;;;9.38;81.19;101881.69;10458914;28;20048;-61
2022/05/02 23:06:08;;;;;;;4.78;2.45;;;;;;;9.33;79.70;101887.09;10458952;28;20059;-61
2022/05/02 23:11:11;;;;;;;2.40;2.15;;;;;;;9.52;77.78;101878.59;10457450;28;20060;-61
2022/05/02 23:16:16;;;;;;;2.85;2.58;;;;;;;9.03;80.45;101884.63;10457782;28;20400;-61
2022/05/02 23:21:21;;;;;;;3.20;2.00;;;;;;;9.17;78.41;101889.38;10458184;28;20045;-61
2022/05/02 23:26:24;;;;;;;3.83;2.13;;;;;;;9.02;78.83;101884.66;10457878;28;20064;-61
2022/05/02 23:31:40;;;;;;;2.28;2.08;;;;;;;9.07;78.17;101880.13;10456715;28;20045;-61
2022/05/02 23:36:51;;;;;;;4.28;2.55;;;;;;;8.79;81.17;101881.03;10456184;28;20048;-61
2022/05/02 23:41:59;;;;;;;2.60;2.03;;;;;;;8.63;82.72;101872.84;10478626;22;20060;-61
2022/05/02 23:47:09;;;;;;;2.33;2.05;;;;;;;8.46;82.47;101876.00;10497174;28;20487;-61
2022/05/02 23:52:24;;;;;;;3.55;2.00;;;;;;;8.55;81.69;101874.84;10498852;28;20048;-61
2022/05/02 23:57:41;;;;;;;4.95;2.10;;;;;;;8.29;83.32;101867.81;10496841;28;20064;-61
